Aeroporto :
LOGIN :

Iscrizione | Disclaimer

   EN    FR    IT 

 










Sommario :    VFR   VFR Marginale   IFR   IFR Intensivo   IFR Molto Intensivo
Visibilità : 
Base nubi : 
>= 8 km
>= 3000ft
5 / 8 km
1000 / 3000 ft
1500m / 5 km
500 / 1000 ft
800 / 1500m
200 / 500 ft
< 800m
< 200 ft
Simboli :   Temporali  Nebbia  Neve Forte  Precipitazioni Forti  Vento > 20 kt
SIGMETs :   Varie  Temporali  Ghiacco  Turbolenza  Onda orograficha  Ceneri Vulcaniche







- Altitudine del aeroporto : 231 ft
- Codice IATA : WTN


EGXW - RAF Waddington

ULTIMO METAR :
  • 201250Z 23014KT 9999 SCT023 BKN060 11/06 Q1016 WHT BECMG SCT025 BLU

METARs OBSOLETI :
  • 201150Z 23011KT 9999 FEW026 BKN060 11/07 Q1016 BLU TEMPO SCT022 WHT
  • 201050Z 23016KT 9999 FEW017 BKN050 10/07 Q1016 BLU TEMPO SCT018 WHT

TAF TAF EGXW
Valido dal 20 a 12 ore il 21 a 06 ore UTC


201032Z 2012/2106 22015KT 9999 FEW018
PROB30
TEMPO 2012/2017 22015G25KT
PROB30
TEMPO 2012/2015 SCT018
TEMPO 2018/2106 BKN018
PROB30
TEMPO 2018/2104 7000 RA
PROB30
TEMPO 2021/2106 BKN012
Nessun NOTAM noto per questo aeroporto.
2 SIGMETs conosciuti per la FIR London (EGTT) :
 
Forte onda orograficha
EGTT SIGMET 03 VALID 201330/201730 EGRR
EGTT LONDON FIR SEV MTW FCST WI N5500 W00116 - N5430 W00110 - N5245 W00200 - N5245 W00400 - N5500 W00330 - N5500 W00116 FL030/250 STNR WKN=
Forte onda orograficha
EGTT SIGMET 02 VALID 200930/201330 EGRR
EGTT LONDON FIR SEV MTW FCST WI N5500 E00006 - N5430 E00009 - N5224 W00209 - N5222 W00327 - N5355 W00530 - N5500 W00530 - N5500 E00006 FL030/250 STNR NC=



MetMap, La meteo Aeronautica in un colpo d'occhio ! - Copyright ORBIFLY Dicembre 2007 - Disclaimer

ORBIFLY MET'MAP TEAM :

Programmazione e sviluppo : Alexandra Zaïnal
Concezione e sviluppo : Baudouin d'Aumeries
Co-Programmazione e sviluppo : Marc-Olivier Méhu
Supporto tecnico e logistico : Manuel Goepfert
Aiuto per la traduzione : Arnaldo La Scala

Contatto : metmap@orbifly.com




FONTI E CREDITI :

   NOAA